sensor_id;sensor_type;location;lat;lon;timestamp;pressure;altitude;pressure_sealevel;temperature;humidity
18988;BME280;5494;51.796;10.952;2023-02-19T00:01:50;98906.31;;;8.99;100.00
18988;BME280;5494;51.796;10.952;2023-02-19T00:04:20;98901.91;;;9.01;100.00
18988;BME280;5494;51.796;10.952;2023-02-19T00:06:49;98908.78;;;9.02;100.00
18988;BME280;5494;51.796;10.952;2023-02-19T00:09:18;98908.22;;;8.95;100.00
18988;BME280;5494;51.796;10.952;2023-02-19T00:11:48;98912.44;;;8.98;100.00
18988;BME280;5494;51.796;10.952;2023-02-19T00:14:19;98914.19;;;8.97;100.00
18988;BME280;5494;51.796;10.952;2023-02-19T00:16:48;98897.91;;;8.94;100.00
18988;BME280;5494;51.796;10.952;2023-02-19T00:19:19;98889.91;;;8.80;100.00
18988;BME280;5494;51.796;10.952;2023-02-19T00:21:50;98872.06;;;8.74;100.00
18988;BME280;5494;51.796;10.952;2023-02-19T00:24:19;98878.94;;;8.75;100.00
18988;BME280;5494;51.796;10.952;2023-02-19T00:26:48;98872.06;;;8.74;100.00
18988;BME280;5494;51.796;10.952;2023-02-19T00:29:20;98871.94;;;8.77;100.00
18988;BME280;5494;51.796;10.952;2023-02-19T00:31:50;98859.72;;;8.79;100.00
18988;BME280;5494;51.796;10.952;2023-02-19T00:34:19;98852.88;;;8.78;100.00
18988;BME280;5494;51.796;10.952;2023-02-19T00:36:47;98839.84;;;8.79;100.00
18988;BME280;5494;51.796;10.952;2023-02-19T00:39:16;98828.78;;;8.76;100.00
18988;BME280;5494;51.796;10.952;2023-02-19T00:41:45;98819.25;;;8.76;100.00
18988;BME280;5494;51.796;10.952;2023-02-19T00:44:15;98802.38;;;8.67;100.00
18988;BME280;5494;51.796;10.952;2023-02-19T00:46:45;98818.22;;;8.61;100.00
18988;BME280;5494;51.796;10.952;2023-02-19T00:49:18;98812.88;;;8.64;100.00
18988;BME280;5494;51.796;10.952;2023-02-19T00:51:47;98806.78;;;8.65;100.00
18988;BME280;5494;51.796;10.952;2023-02-19T00:54:19;98811.22;;;8.63;100.00
18988;BME280;5494;51.796;10.952;2023-02-19T00:56:48;98810.38;;;8.63;100.00
18988;BME280;5494;51.796;10.952;2023-02-19T00:59:18;98800.19;;;8.58;100.00
18988;BME280;5494;51.796;10.952;2023-02-19T01:01:46;98789.16;;;8.55;100.00
18988;BME280;5494;51.796;10.952;2023-02-19T01:04:16;98791.53;;;8.59;100.00
18988;BME280;5494;51.796;10.952;2023-02-19T01:06:44;98777.16;;;8.52;100.00
18988;BME280;5494;51.796;10.952;2023-02-19T01:09:14;98774.56;;;8.52;100.00
18988;BME280;5494;51.796;10.952;2023-02-19T01:11:42;98784.19;;;8.50;100.00
18988;BME280;5494;51.796;10.952;2023-02-19T01:14:11;98787.47;;;8.54;100.00
18988;BME280;5494;51.796;10.952;2023-02-19T01:16:40;98781.16;;;8.59;100.00
18988;BME280;5494;51.796;10.952;2023-02-19T01:19:08;98774.28;;;8.58;100.00
18988;BME280;5494;51.796;10.952;2023-02-19T01:21:39;98757.78;;;8.61;100.00
18988;BME280;5494;51.796;10.952;2023-02-19T01:24:09;98758.63;;;8.61;100.00
18988;BME280;5494;51.796;10.952;2023-02-19T01:26:37;98756.16;;;8.58;100.00
18988;BME280;5494;51.796;10.952;2023-02-19T01:29:06;98743.91;;;8.62;100.00
18988;BME280;5494;51.796;10.952;2023-02-19T01:31:34;98743.06;;;8.61;100.00
18988;BME280;5494;51.796;10.952;2023-02-19T01:34:05;98742.22;;;8.61;100.00
18988;BME280;5494;51.796;10.952;2023-02-19T01:36:33;98741.38;;;8.60;100.00
18988;BME280;5494;51.796;10.952;2023-02-19T01:39:04;98736.22;;;8.60;100.00
18988;BME280;5494;51.796;10.952;2023-02-19T01:41:36;98730.06;;;8.63;100.00
18988;BME280;5494;51.796;10.952;2023-02-19T01:47:16;98719.88;;;8.58;100.00
18988;BME280;5494;51.796;10.952;2023-02-19T01:49:51;98713.97;;;8.56;100.00
18988;BME280;5494;51.796;10.952;2023-02-19T01:52:27;98715.66;;;8.57;100.00
18988;BME280;5494;51.796;10.952;2023-02-19T01:55:00;98708.97;;;8.52;100.00
18988;BME280;5494;51.796;10.952;2023-02-19T01:57:34;98718.06;;;8.60;100.00
18988;BME280;5494;51.796;10.952;2023-02-19T02:00:08;98716.38;;;8.59;100.00
18988;BME280;5494;51.796;10.952;2023-02-19T02:02:43;98712.81;;;8.62;100.00
18988;BME280;5494;51.796;10.952;2023-02-19T02:05:24;98699.09;;;8.60;100.00
18988;BME280;5494;51.796;10.952;2023-02-19T02:07:55;98686.22;;;8.58;100.00
18988;BME280;5494;51.796;10.952;2023-02-19T02:10:41;98693.28;;;8.55;100.00
18988;BME280;5494;51.796;10.952;2023-02-19T02:13:09;98690.47;;;8.59;100.00
18988;BME280;5494;51.796;10.952;2023-02-19T02:15:50;98693.84;;;8.61;100.00
18988;BME280;5494;51.796;10.952;2023-02-19T02:18:43;98679.97;;;8.62;100.00
18988;BME280;5494;51.796;10.952;2023-02-19T02:21:34;98679.28;;;8.59;100.00
18988;BME280;5494;51.796;10.952;2023-02-19T02:24:23;98671.31;;;8.63;100.00
18988;BME280;5494;51.796;10.952;2023-02-19T02:27:18;98662.75;;;8.61;100.00
18988;BME280;5494;51.796;10.952;2023-02-19T02:33:20;98646.31;;;8.62;100.00
18988;BME280;5494;51.796;10.952;2023-02-19T02:35:58;98638.59;;;8.61;100.00
18988;BME280;5494;51.796;10.952;2023-02-19T02:38:32;98641.13;;;8.62;100.00
18988;BME280;5494;51.796;10.952;2023-02-19T02:41:02;98634.38;;;8.58;100.00
18988;BME280;5494;51.796;10.952;2023-02-19T02:43:32;98637.94;;;8.57;100.00
18988;BME280;5494;51.796;10.952;2023-02-19T02:46:01;98628.47;;;8.56;100.00
18988;BME280;5494;51.796;10.952;2023-02-19T02:48:37;98624.88;;;8.59;100.00
18988;BME280;5494;51.796;10.952;2023-02-19T02:51:15;98626.47;;;8.61;100.00
18988;BME280;5494;51.796;10.952;2023-02-19T02:54:06;98619.69;;;8.59;100.00
18988;BME280;5494;51.796;10.952;2023-02-19T02:56:54;98616.78;;;8.65;100.00
18988;BME280;5494;51.796;10.952;2023-02-19T02:59:31;98620.41;;;8.62;100.00
18988;BME280;5494;51.796;10.952;2023-02-19T03:02:06;98626.19;;;8.67;100.00
18988;BME280;5494;51.796;10.952;2023-02-19T03:04:47;98632.28;;;8.66;100.00
18988;BME280;5494;51.796;10.952;2023-02-19T03:07:40;98633.19;;;8.65;100.00
18988;BME280;5494;51.796;10.952;2023-02-19T03:10:15;98639.13;;;8.67;100.00
18988;BME280;5494;51.796;10.952;2023-02-19T03:12:45;98639.13;;;8.67;100.00
18988;BME280;5494;51.796;10.952;2023-02-19T03:15:42;98644.88;;;8.74;100.00
18988;BME280;5494;51.796;10.952;2023-02-19T03:18:33;98654.16;;;8.78;100.00
18988;BME280;5494;51.796;10.952;2023-02-19T03:21:24;98661.94;;;8.78;100.00
18988;BME280;5494;51.796;10.952;2023-02-19T03:23:56;98659.34;;;8.78;100.00
18988;BME280;5494;51.796;10.952;2023-02-19T03:26:44;98669.03;;;8.75;100.00
18988;BME280;5494;51.796;10.952;2023-02-19T03:29:25;98656.66;;;8.62;100.00
18988;BME280;5494;51.796;10.952;2023-02-19T03:32:05;98648.41;;;8.54;100.00
18988;BME280;5494;51.796;10.952;2023-02-19T03:34:41;98670.66;;;8.58;100.00
18988;BME280;5494;51.796;10.952;2023-02-19T03:37:17;98665.47;;;8.58;100.00
18988;BME280;5494;51.796;10.952;2023-02-19T03:39:47;98652.09;;;8.50;100.00
18988;BME280;5494;51.796;10.952;2023-02-19T03:42:30;98648.84;;;8.45;100.00
18988;BME280;5494;51.796;10.952;2023-02-19T03:45:25;98641.00;;;8.47;100.00
18988;BME280;5494;51.796;10.952;2023-02-19T03:48:21;98638.41;;;8.47;100.00
18988;BME280;5494;51.796;10.952;2023-02-19T03:51:04;98632.34;;;8.48;100.00
18988;BME280;5494;51.796;10.952;2023-02-19T03:53:49;98638.06;;;8.54;100.00
18988;BME280;5494;51.796;10.952;2023-02-19T03:56:27;98634.94;;;8.65;100.00
18988;BME280;5494;51.796;10.952;2023-02-19T03:59:05;98632.13;;;8.69;100.00
18988;BME280;5494;51.796;10.952;2023-02-19T04:01:42;98638.84;;;8.74;100.00
18988;BME280;5494;51.796;10.952;2023-02-19T04:04:17;98639.63;;;8.76;100.00
18988;BME280;5494;51.796;10.952;2023-02-19T04:06:52;98633.59;;;8.75;100.00
18988;BME280;5494;51.796;10.952;2023-02-19T04:09:23;98629.84;;;8.81;100.00
18988;BME280;5494;51.796;10.952;2023-02-19T04:12:01;98640.09;;;8.84;100.00
18988;BME280;5494;51.796;10.952;2023-02-19T04:14:40;98633.03;;;8.86;100.00
18988;BME280;5494;51.796;10.952;2023-02-19T04:17:18;98629.34;;;8.91;100.00
18988;BME280;5494;51.796;10.952;2023-02-19T04:19:49;98637.97;;;8.92;100.00
18988;BME280;5494;51.796;10.952;2023-02-19T04:22:22;98635.25;;;8.93;100.00
18988;BME280;5494;51.796;10.952;2023-02-19T04:24:52;98643.56;;;9.00;100.00
18988;BME280;5494;51.796;10.952;2023-02-19T04:27:22;98635.59;;;9.04;100.00
18988;BME280;5494;51.796;10.952;2023-02-19T04:29:50;98631.16;;;9.06;100.00
18988;BME280;5494;51.796;10.952;2023-02-19T04:32:18;98635.66;;;9.03;100.00
18988;BME280;5494;51.796;10.952;2023-02-19T04:34:46;98641.69;;;9.03;100.00
18988;BME280;5494;51.796;10.952;2023-02-19T04:37:14;98635.50;;;9.06;100.00
18988;BME280;5494;51.796;10.952;2023-02-19T04:39:44;98638.00;;;9.07;100.00
18988;BME280;5494;51.796;10.952;2023-02-19T04:42:12;98642.53;;;9.04;100.00
18988;BME280;5494;51.796;10.952;2023-02-19T04:44:43;98640.25;;;8.98;100.00
18988;BME280;5494;51.796;10.952;2023-02-19T04:47:11;98641.44;;;9.08;100.00
18988;BME280;5494;51.796;10.952;2023-02-19T04:49:39;98630.88;;;9.13;100.00
18988;BME280;5494;51.796;10.952;2023-02-19T04:52:06;98639.31;;;9.16;100.00
18988;BME280;5494;51.796;10.952;2023-02-19T04:54:35;98642.16;;;9.12;100.00
18988;BME280;5494;51.796;10.952;2023-02-19T04:57:04;98649.81;;;9.13;100.00
18988;BME280;5494;51.796;10.952;2023-02-19T04:59:32;98652.41;;;9.13;100.00
18988;BME280;5494;51.796;10.952;2023-02-19T05:02:00;98646.25;;;9.16;100.00
18988;BME280;5494;51.796;10.952;2023-02-19T05:04:29;98662.88;;;9.12;100.00
18988;BME280;5494;51.796;10.952;2023-02-19T05:06:57;98678.22;;;9.16;100.00
18988;BME280;5494;51.796;10.952;2023-02-19T05:09:25;98683.47;;;9.15;100.00
18988;BME280;5494;51.796;10.952;2023-02-19T05:11:53;98674.94;;;9.13;100.00
18988;BME280;5494;51.796;10.952;2023-02-19T05:14:22;98678.50;;;9.10;100.00
18988;BME280;5494;51.796;10.952;2023-02-19T05:16:50;98704.97;;;9.17;100.00
18988;BME280;5494;51.796;10.952;2023-02-19T05:19:18;98733.34;;;9.02;100.00
18988;BME280;5494;51.796;10.952;2023-02-19T05:21:46;98743.38;;;8.55;100.00
18988;BME280;5494;51.796;10.952;2023-02-19T05:24:14;98752.03;;;7.97;100.00
18988;BME280;5494;51.796;10.952;2023-02-19T05:26:42;98765.03;;;7.75;100.00
18988;BME280;5494;51.796;10.952;2023-02-19T05:29:11;98767.72;;;7.33;100.00
18988;BME280;5494;51.796;10.952;2023-02-19T05:31:40;98777.63;;;7.00;100.00
18988;BME280;5494;51.796;10.952;2023-02-19T05:34:09;98777.94;;;7.14;100.00
18988;BME280;5494;51.796;10.952;2023-02-19T05:36:38;98803.53;;;7.20;100.00
18988;BME280;5494;51.796;10.952;2023-02-19T05:39:06;98808.34;;;7.07;100.00
18988;BME280;5494;51.796;10.952;2023-02-19T05:41:35;98795.47;;;7.06;100.00
18988;BME280;5494;51.796;10.952;2023-02-19T05:44:03;98810.75;;;6.90;100.00
18988;BME280;5494;51.796;10.952;2023-02-19T05:46:31;98823.03;;;6.62;100.00
18988;BME280;5494;51.796;10.952;2023-02-19T05:49:00;98834.63;;;6.50;100.00
18988;BME280;5494;51.796;10.952;2023-02-19T05:51:29;98838.06;;;6.03;100.00
18988;BME280;5494;51.796;10.952;2023-02-19T05:53:57;98841.63;;;5.74;100.00
18988;BME280;5494;51.796;10.952;2023-02-19T05:56:33;98843.13;;;5.54;100.00
18988;BME280;5494;51.796;10.952;2023-02-19T05:59:05;98854.03;;;5.36;100.00
18988;BME280;5494;51.796;10.952;2023-02-19T06:01:34;98877.19;;;5.38;100.00
18988;BME280;5494;51.796;10.952;2023-02-19T06:04:04;98878.88;;;5.39;100.00
18988;BME280;5494;51.796;10.952;2023-02-19T06:06:32;98896.06;;;5.38;100.00
18988;BME280;5494;51.796;10.952;2023-02-19T06:09:00;98896.66;;;5.46;100.00
18988;BME280;5494;51.796;10.952;2023-02-19T06:11:29;98901.00;;;5.18;100.00
18988;BME280;5494;51.796;10.952;2023-02-19T06:13:56;98908.19;;;5.07;100.00
18988;BME280;5494;51.796;10.952;2023-02-19T06:16:25;98920.09;;;5.11;100.00
18988;BME280;5494;51.796;10.952;2023-02-19T06:18:54;98945.13;;;5.06;100.00
18988;BME280;5494;51.796;10.952;2023-02-19T06:21:23;98950.25;;;5.07;100.00
18988;BME280;5494;51.796;10.952;2023-02-19T06:23:51;98950.06;;;5.13;100.00
18988;BME280;5494;51.796;10.952;2023-02-19T06:26:22;98958.53;;;5.19;100.00
18988;BME280;5494;51.796;10.952;2023-02-19T06:28:53;98962.53;;;5.27;100.00
18988;BME280;5494;51.796;10.952;2023-02-19T06:31:21;98969.50;;;5.25;100.00
18988;BME280;5494;51.796;10.952;2023-02-19T06:33:49;98970.31;;;5.26;100.00
18988;BME280;5494;51.796;10.952;2023-02-19T06:36:23;98978.59;;;5.37;100.00
18988;BME280;5494;51.796;10.952;2023-02-19T06:38:51;98977.63;;;5.11;100.00
18988;BME280;5494;51.796;10.952;2023-02-19T06:41:19;98985.38;;;5.10;100.00
18988;BME280;5494;51.796;10.952;2023-02-19T06:43:47;98996.56;;;5.09;100.00
18988;BME280;5494;51.796;10.952;2023-02-19T06:46:15;98994.66;;;5.15;100.00
18988;BME280;5494;51.796;10.952;2023-02-19T06:48:44;98983.59;;;5.12;100.00
18988;BME280;5494;51.796;10.952;2023-02-19T06:51:17;98996.56;;;5.09;100.00
18988;BME280;5494;51.796;10.952;2023-02-19T06:53:50;99003.63;;;5.02;100.00
18988;BME280;5494;51.796;10.952;2023-02-19T06:56:25;99007.50;;;5.17;100.00
18988;BME280;5494;51.796;10.952;2023-02-19T06:58:55;99016.41;;;5.36;100.00
18988;BME280;5494;51.796;10.952;2023-02-19T07:01:23;99022.19;;;5.44;100.00
18988;BME280;5494;51.796;10.952;2023-02-19T07:03:52;99021.16;;;5.50;100.00
18988;BME280;5494;51.796;10.952;2023-02-19T07:06:21;99035.69;;;5.52;100.00
18988;BME280;5494;51.796;10.952;2023-02-19T07:08:55;99041.53;;;5.58;100.00
18988;BME280;5494;51.796;10.952;2023-02-19T07:11:29;99036.09;;;5.39;100.00
18988;BME280;5494;51.796;10.952;2023-02-19T07:14:00;99040.41;;;5.38;100.00
18988;BME280;5494;51.796;10.952;2023-02-19T07:16:29;99061.22;;;5.31;100.00
18988;BME280;5494;51.796;10.952;2023-02-19T07:18:58;99052.16;;;5.47;100.00
18988;BME280;5494;51.796;10.952;2023-02-19T07:21:27;99060.47;;;5.27;100.00
18988;BME280;5494;51.796;10.952;2023-02-19T07:23:57;99065.38;;;5.36;100.00
18988;BME280;5494;51.796;10.952;2023-02-19T07:26:28;99068.16;;;5.29;100.00
18988;BME280;5494;51.796;10.952;2023-02-19T07:28:56;99074.41;;;5.20;100.00
18988;BME280;5494;51.796;10.952;2023-02-19T07:31:24;99080.22;;;4.96;100.00
18988;BME280;5494;51.796;10.952;2023-02-19T07:33:53;99098.03;;;4.71;100.00
18988;BME280;5494;51.796;10.952;2023-02-19T07:36:23;99112.50;;;4.41;100.00
18988;BME280;5494;51.796;10.952;2023-02-19T07:38:55;99115.41;;;4.27;100.00
18988;BME280;5494;51.796;10.952;2023-02-19T07:41:26;99124.16;;;4.20;100.00
18988;BME280;5494;51.796;10.952;2023-02-19T07:43:56;99126.53;;;4.28;100.00
18988;BME280;5494;51.796;10.952;2023-02-19T07:46:25;99138.25;;;4.03;100.00
18988;BME280;5494;51.796;10.952;2023-02-19T07:48:53;99137.69;;;3.88;100.00
18988;BME280;5494;51.796;10.952;2023-02-19T07:51:21;99150.47;;;3.93;100.00
18988;BME280;5494;51.796;10.952;2023-02-19T07:53:50;99163.91;;;4.06;100.00
18988;BME280;5494;51.796;10.952;2023-02-19T07:56:19;99178.13;;;4.22;100.00
18988;BME280;5494;51.796;10.952;2023-02-19T07:58:48;99182.38;;;4.23;100.00
18988;BME280;5494;51.796;10.952;2023-02-19T08:01:19;99186.88;;;4.15;100.00
18988;BME280;5494;51.796;10.952;2023-02-19T08:04:12;99199.50;;;4.24;100.00
18988;BME280;5494;51.796;10.952;2023-02-19T08:06:40;99206.78;;;4.05;100.00
18988;BME280;5494;51.796;10.952;2023-02-19T08:09:08;99208.53;;;4.03;100.00
18988;BME280;5494;51.796;10.952;2023-02-19T08:11:37;99219.97;;;3.88;100.00
18988;BME280;5494;51.796;10.952;2023-02-19T08:14:25;99228.38;;;3.96;100.00
18988;BME280;5494;51.796;10.952;2023-02-19T08:16:54;99231.59;;;4.08;100.00
18988;BME280;5494;51.796;10.952;2023-02-19T08:19:22;99238.97;;;4.23;100.00
18988;BME280;5494;51.796;10.952;2023-02-19T08:21:50;99240.81;;;3.75;100.00
18988;BME280;5494;51.796;10.952;2023-02-19T08:24:19;99252.13;;;3.66;100.00
18988;BME280;5494;51.796;10.952;2023-02-19T08:26:47;99258.06;;;3.68;100.00
18988;BME280;5494;51.796;10.952;2023-02-19T08:29:15;99265.06;;;3.62;100.00
18988;BME280;5494;51.796;10.952;2023-02-19T08:31:44;99267.50;;;3.68;100.00
18988;BME280;5494;51.796;10.952;2023-02-19T08:34:12;99268.06;;;3.83;100.00
18988;BME280;5494;51.796;10.952;2023-02-19T08:36:40;99282.63;;;3.84;100.00
18988;BME280;5494;51.796;10.952;2023-02-19T08:39:09;99278.47;;;3.77;100.00
18988;BME280;5494;51.796;10.952;2023-02-19T08:41:37;99281.34;;;4.07;100.00
18988;BME280;5494;51.796;10.952;2023-02-19T08:44:05;99287.25;;;4.12;100.00
18988;BME280;5494;51.796;10.952;2023-02-19T08:46:33;99292.13;;;4.24;100.00
18988;BME280;5494;51.796;10.952;2023-02-19T08:49:02;99291.13;;;4.31;100.00
18988;BME280;5494;51.796;10.952;2023-02-19T08:51:30;99285.66;;;4.48;100.00
18988;BME280;5494;51.796;10.952;2023-02-19T08:54:01;99293.03;;;4.63;100.00
18988;BME280;5494;51.796;10.952;2023-02-19T08:56:29;99301.34;;;4.75;100.00
18988;BME280;5494;51.796;10.952;2023-02-19T08:58:58;99302.28;;;4.71;100.00
18988;BME280;5494;51.796;10.952;2023-02-19T09:01:25;99306.41;;;4.79;100.00
18988;BME280;5494;51.796;10.952;2023-02-19T09:03:54;99313.97;;;4.86;100.00
18988;BME280;5494;51.796;10.952;2023-02-19T09:06:23;99315.63;;;4.89;100.00
18988;BME280;5494;51.796;10.952;2023-02-19T09:08:51;99313.94;;;4.88;100.00
18988;BME280;5494;51.796;10.952;2023-02-19T09:11:19;99316.22;;;5.00;100.00
18988;BME280;5494;51.796;10.952;2023-02-19T09:13:47;99313.50;;;5.06;100.00
18988;BME280;5494;51.796;10.952;2023-02-19T09:16:18;99328.91;;;5.09;100.00
18988;BME280;5494;51.796;10.952;2023-02-19T09:18:46;99325.16;;;5.22;100.00
18988;BME280;5494;51.796;10.952;2023-02-19T09:21:14;99331.06;;;5.26;100.00
18988;BME280;5494;51.796;10.952;2023-02-19T09:23:43;99332.88;;;5.24;100.00
18988;BME280;5494;51.796;10.952;2023-02-19T09:26:11;99334.16;;;5.41;100.00
18988;BME280;5494;51.796;10.952;2023-02-19T09:28:39;99335.63;;;5.51;100.00
18988;BME280;5494;51.796;10.952;2023-02-19T09:31:11;99342.94;;;5.68;100.00
18988;BME280;5494;51.796;10.952;2023-02-19T09:33:44;99344.22;;;5.86;100.00
18988;BME280;5494;51.796;10.952;2023-02-19T09:36:14;99355.84;;;6.02;100.00
18988;BME280;5494;51.796;10.952;2023-02-19T09:38:44;99358.19;;;6.11;100.00
18988;BME280;5494;51.796;10.952;2023-02-19T09:41:21;99364.81;;;6.21;100.00
18988;BME280;5494;51.796;10.952;2023-02-19T09:43:51;99367.94;;;6.32;100.00
18988;BME280;5494;51.796;10.952;2023-02-19T09:46:29;99361.22;;;6.27;100.00
18988;BME280;5494;51.796;10.952;2023-02-19T09:49:04;99348.84;;;6.38;100.00
18988;BME280;5494;51.796;10.952;2023-02-19T09:51:36;99352.69;;;6.54;100.00
18988;BME280;5494;51.796;10.952;2023-02-19T09:54:16;99351.53;;;6.64;100.00
18988;BME280;5494;51.796;10.952;2023-02-19T09:56:47;99354.69;;;7.03;100.00
18988;BME280;5494;51.796;10.952;2023-02-19T09:59:20;99343.59;;;7.28;100.00
18988;BME280;5494;51.796;10.952;2023-02-19T10:01:56;99358.78;;;7.65;100.00
18988;BME280;5494;51.796;10.952;2023-02-19T10:04:26;99359.28;;;8.01;100.00
18988;BME280;5494;51.796;10.952;2023-02-19T10:06:57;99364.22;;;8.08;100.00
18988;BME280;5494;51.796;10.952;2023-02-19T10:09:30;99367.06;;;8.01;100.00
18988;BME280;5494;51.796;10.952;2023-02-19T10:11:59;99377.06;;;8.10;100.00
18988;BME280;5494;51.796;10.952;2023-02-19T10:14:34;99390.94;;;8.09;100.00
18988;BME280;5494;51.796;10.952;2023-02-19T10:17:05;99386.53;;;8.11;100.00
18988;BME280;5494;51.796;10.952;2023-02-19T10:19:35;99389.09;;;8.12;98.81
18988;BME280;5494;51.796;10.952;2023-02-19T10:22:04;99395.03;;;8.16;98.40
18988;BME280;5494;51.796;10.952;2023-02-19T10:24:33;99405.50;;;8.11;100.00
18988;BME280;5494;51.796;10.952;2023-02-19T10:27:10;99410.44;;;8.19;100.00
18988;BME280;5494;51.796;10.952;2023-02-19T10:29:38;99420.81;;;8.44;100.00
18988;BME280;5494;51.796;10.952;2023-02-19T10:32:18;99421.25;;;8.05;97.33
18988;BME280;5494;51.796;10.952;2023-02-19T10:35:09;99430.91;;;8.51;100.00
18988;BME280;5494;51.796;10.952;2023-02-19T10:37:44;99435.13;;;8.79;97.88
18988;BME280;5494;51.796;10.952;2023-02-19T10:40:20;99436.03;;;9.01;95.03
18988;BME280;5494;51.796;10.952;2023-02-19T10:42:51;99444.84;;;8.97;91.27
18988;BME280;5494;51.796;10.952;2023-02-19T10:45:32;99457.44;;;9.06;91.04
18988;BME280;5494;51.796;10.952;2023-02-19T10:48:02;99458.47;;;9.02;92.51
18988;BME280;5494;51.796;10.952;2023-02-19T10:50:34;99467.91;;;8.80;92.78
18988;BME280;5494;51.796;10.952;2023-02-19T10:53:05;99466.78;;;8.87;90.38
18988;BME280;5494;51.796;10.952;2023-02-19T10:55:35;99478.06;;;8.86;91.09
18988;BME280;5494;51.796;10.952;2023-02-19T10:58:22;99480.25;;;8.73;86.31
18988;BME280;5494;51.796;10.952;2023-02-19T11:01:13;99470.84;;;8.71;87.55
18988;BME280;5494;51.796;10.952;2023-02-19T11:03:42;99471.63;;;8.73;89.15
18988;BME280;5494;51.796;10.952;2023-02-19T11:06:13;99485.91;;;8.59;86.53
18988;BME280;5494;51.796;10.952;2023-02-19T11:08:52;99489.44;;;8.32;90.27
18988;BME280;5494;51.796;10.952;2023-02-19T11:11:30;99500.03;;;8.51;89.92
18988;BME280;5494;51.796;10.952;2023-02-19T11:14:02;99506.75;;;8.56;90.03
18988;BME280;5494;51.796;10.952;2023-02-19T11:16:43;99510.50;;;8.48;86.65
18988;BME280;5494;51.796;10.952;2023-02-19T11:19:35;99511.63;;;8.65;89.89
18988;BME280;5494;51.796;10.952;2023-02-19T11:22:28;99517.75;;;8.63;89.41
18988;BME280;5494;51.796;10.952;2023-02-19T11:25:04;99509.91;;;8.40;83.29
18988;BME280;5494;51.796;10.952;2023-02-19T11:27:34;99505.31;;;8.21;82.17
18988;BME280;5494;51.796;10.952;2023-02-19T11:30:35;99493.25;;;8.20;84.93
18988;BME280;5494;51.796;10.952;2023-02-19T11:33:23;99501.75;;;8.24;85.07
18988;BME280;5494;51.796;10.952;2023-02-19T11:36:25;99489.34;;;8.09;85.67
18988;BME280;5494;51.796;10.952;2023-02-19T11:38:58;99492.78;;;7.81;85.76
18988;BME280;5494;51.796;10.952;2023-02-19T11:41:53;99493.50;;;7.59;88.79
18988;BME280;5494;51.796;10.952;2023-02-19T11:44:46;99502.47;;;7.75;90.34
18988;BME280;5494;51.796;10.952;2023-02-19T11:47:50;99502.88;;;7.89;88.88
18988;BME280;5494;51.796;10.952;2023-02-19T11:50:32;99501.72;;;7.99;88.11
18988;BME280;5494;51.796;10.952;2023-02-19T11:53:20;99507.81;;;7.97;85.46
18988;BME280;5494;51.796;10.952;2023-02-19T11:56:06;99499.22;;;7.96;85.70
18988;BME280;5494;51.796;10.952;2023-02-19T11:59:00;99509.56;;;7.96;87.11
18988;BME280;5494;51.796;10.952;2023-02-19T12:02:21;99505.72;;;7.81;86.10
18988;BME280;5494;51.796;10.952;2023-02-19T12:05:20;99508.41;;;7.78;86.93
18988;BME280;5494;51.796;10.952;2023-02-19T12:11:18;99507.97;;;7.64;84.57
18988;BME280;5494;51.796;10.952;2023-02-19T12:14:22;99505.13;;;7.73;84.88
18988;BME280;5494;51.796;10.952;2023-02-19T12:17:01;99499.94;;;8.01;86.18
18988;BME280;5494;51.796;10.952;2023-02-19T12:19:54;99508.34;;;8.08;82.78
18988;BME280;5494;51.796;10.952;2023-02-19T12:22:29;99502.19;;;7.84;81.89
18988;BME280;5494;51.796;10.952;2023-02-19T12:25:29;99519.22;;;7.63;84.17
18988;BME280;5494;51.796;10.952;2023-02-19T12:28:28;99513.41;;;7.84;84.09
18988;BME280;5494;51.796;10.952;2023-02-19T12:31:16;99513.44;;;7.83;85.46
18988;BME280;5494;51.796;10.952;2023-02-19T12:34:24;99509.09;;;7.83;85.13
18988;BME280;5494;51.796;10.952;2023-02-19T12:37:18;99518.78;;;8.05;84.27
18988;BME280;5494;51.796;10.952;2023-02-19T12:40:08;99524.81;;;8.05;84.80
18988;BME280;5494;51.796;10.952;2023-02-19T12:42:55;99522.44;;;7.71;85.85
18988;BME280;5494;51.796;10.952;2023-02-19T12:45:35;99522.56;;;7.67;86.73
18988;BME280;5494;51.796;10.952;2023-02-19T12:48:15;99525.31;;;7.61;87.20
18988;BME280;5494;51.796;10.952;2023-02-19T12:50:48;99523.06;;;7.50;83.14
18988;BME280;5494;51.796;10.952;2023-02-19T12:53:33;99527.44;;;7.48;85.70
18988;BME280;5494;51.796;10.952;2023-02-19T12:56:12;99527.63;;;7.42;84.02
18988;BME280;5494;51.796;10.952;2023-02-19T12:58:45;99526.91;;;7.37;83.09
18988;BME280;5494;51.796;10.952;2023-02-19T13:01:21;99541.72;;;7.32;84.43
18988;BME280;5494;51.796;10.952;2023-02-19T13:04:14;99550.41;;;7.29;84.58
18988;BME280;5494;51.796;10.952;2023-02-19T13:06:50;99539.00;;;7.36;86.41
18988;BME280;5494;51.796;10.952;2023-02-19T13:09:28;99542.88;;;7.51;86.54
18988;BME280;5494;51.796;10.952;2023-02-19T13:12:04;99542.69;;;7.57;85.07
18988;BME280;5494;51.796;10.952;2023-02-19T13:14:39;99548.44;;;7.67;82.63
18988;BME280;5494;51.796;10.952;2023-02-19T13:17:21;99544.13;;;7.67;81.76
18988;BME280;5494;51.796;10.952;2023-02-19T13:19:55;99555.28;;;7.68;80.60
18988;BME280;5494;51.796;10.952;2023-02-19T13:22:34;99555.56;;;7.60;79.92
18988;BME280;5494;51.796;10.952;2023-02-19T13:25:36;99555.19;;;7.43;76.41
18988;BME280;5494;51.796;10.952;2023-02-19T13:28:18;99566.63;;;7.34;76.01
18988;BME280;5494;51.796;10.952;2023-02-19T13:31:24;99569.47;;;7.25;76.89
18988;BME280;5494;51.796;10.952;2023-02-19T13:34:09;99563.56;;;7.20;79.64
18988;BME280;5494;51.796;10.952;2023-02-19T13:36:42;99568.66;;;7.23;80.68
18988;BME280;5494;51.796;10.952;2023-02-19T13:39:14;99581.38;;;7.31;81.69
18988;BME280;5494;51.796;10.952;2023-02-19T13:41:50;99592.63;;;7.30;81.96
18988;BME280;5494;51.796;10.952;2023-02-19T13:44:20;99590.84;;;7.32;83.08
18988;BME280;5494;51.796;10.952;2023-02-19T13:46:50;99592.59;;;7.31;83.57
18988;BME280;5494;51.796;10.952;2023-02-19T13:49:47;99586.63;;;7.28;82.79
18988;BME280;5494;51.796;10.952;2023-02-19T13:52:40;99587.38;;;7.33;83.68